sensor_id;sensor_type;location;lat;lon;timestamp;temperature;humidity
17998;DHT22;9124;48.144;17.098;2023-03-05T00:02:33;4.40;57.70
17998;DHT22;9124;48.144;17.098;2023-03-05T00:06:10;4.30;57.60
17998;DHT22;9124;48.144;17.098;2023-03-05T00:09:47;4.40;57.80
17998;DHT22;9124;48.144;17.098;2023-03-05T00:13:24;4.40;57.80
17998;DHT22;9124;48.144;17.098;2023-03-05T00:17:00;4.40;57.80
17998;DHT22;9124;48.144;17.098;2023-03-05T00:20:37;4.30;57.80
17998;DHT22;9124;48.144;17.098;2023-03-05T00:24:15;4.40;57.90
17998;DHT22;9124;48.144;17.098;2023-03-05T00:27:53;4.40;58.00
17998;DHT22;9124;48.144;17.098;2023-03-05T00:31:31;4.40;58.00
17998;DHT22;9124;48.144;17.098;2023-03-05T00:35:09;4.40;58.00
17998;DHT22;9124;48.144;17.098;2023-03-05T00:38:46;4.40;57.90
17998;DHT22;9124;48.144;17.098;2023-03-05T00:42:22;4.30;57.80
17998;DHT22;9124;48.144;17.098;2023-03-05T00:46:00;4.30;58.00
17998;DHT22;9124;48.144;17.098;2023-03-05T00:49:36;4.30;58.10
17998;DHT22;9124;48.144;17.098;2023-03-05T00:53:12;4.30;58.20
17998;DHT22;9124;48.144;17.098;2023-03-05T00:56:48;4.30;58.10
17998;DHT22;9124;48.144;17.098;2023-03-05T01:00:25;4.40;58.20
17998;DHT22;9124;48.144;17.098;2023-03-05T01:04:01;4.40;58.20
17998;DHT22;9124;48.144;17.098;2023-03-05T01:07:38;4.40;58.20
17998;DHT22;9124;48.144;17.098;2023-03-05T01:11:15;4.40;58.20
17998;DHT22;9124;48.144;17.098;2023-03-05T01:14:51;4.50;58.30
17998;DHT22;9124;48.144;17.098;2023-03-05T01:18:28;4.50;58.30
17998;DHT22;9124;48.144;17.098;2023-03-05T01:22:04;4.50;58.30
17998;DHT22;9124;48.144;17.098;2023-03-05T01:25:41;4.50;58.30
17998;DHT22;9124;48.144;17.098;2023-03-05T01:29:17;4.50;58.30
17998;DHT22;9124;48.144;17.098;2023-03-05T01:32:55;4.50;58.30
17998;DHT22;9124;48.144;17.098;2023-03-05T01:36:32;4.50;58.30
17998;DHT22;9124;48.144;17.098;2023-03-05T01:40:10;4.50;58.50
17998;DHT22;9124;48.144;17.098;2023-03-05T01:43:48;4.50;58.50
17998;DHT22;9124;48.144;17.098;2023-03-05T01:47:24;4.50;58.50
17998;DHT22;9124;48.144;17.098;2023-03-05T01:51:00;4.50;58.50
17998;DHT22;9124;48.144;17.098;2023-03-05T01:54:44;4.40;58.40
17998;DHT22;9124;48.144;17.098;2023-03-05T01:58:21;4.40;58.50
17998;DHT22;9124;48.144;17.098;2023-03-05T02:01:58;4.40;58.70
17998;DHT22;9124;48.144;17.098;2023-03-05T02:05:37;4.40;58.60
17998;DHT22;9124;48.144;17.098;2023-03-05T02:09:15;4.30;59.10
17998;DHT22;9124;48.144;17.098;2023-03-05T02:12:53;4.30;58.60
17998;DHT22;9124;48.144;17.098;2023-03-05T02:16:32;4.30;58.70
17998;DHT22;9124;48.144;17.098;2023-03-05T02:20:18;4.30;58.80
17998;DHT22;9124;48.144;17.098;2023-03-05T02:23:55;4.30;58.80
17998;DHT22;9124;48.144;17.098;2023-03-05T02:27:32;4.30;58.90
17998;DHT22;9124;48.144;17.098;2023-03-05T02:31:17;4.30;58.90
17998;DHT22;9124;48.144;17.098;2023-03-05T02:34:53;4.40;59.10
17998;DHT22;9124;48.144;17.098;2023-03-05T02:38:31;4.40;59.00
17998;DHT22;9124;48.144;17.098;2023-03-05T02:42:08;4.30;58.90
17998;DHT22;9124;48.144;17.098;2023-03-05T02:45:45;4.30;58.90
17998;DHT22;9124;48.144;17.098;2023-03-05T02:49:21;4.30;58.90
17998;DHT22;9124;48.144;17.098;2023-03-05T02:52:58;4.30;59.00
17998;DHT22;9124;48.144;17.098;2023-03-05T02:56:34;4.30;59.10
17998;DHT22;9124;48.144;17.098;2023-03-05T03:00:11;4.30;59.20
17998;DHT22;9124;48.144;17.098;2023-03-05T03:03:48;4.30;59.20
17998;DHT22;9124;48.144;17.098;2023-03-05T03:07:25;4.30;59.30
17998;DHT22;9124;48.144;17.098;2023-03-05T03:11:07;4.30;59.30
17998;DHT22;9124;48.144;17.098;2023-03-05T03:14:43;4.30;59.40
17998;DHT22;9124;48.144;17.098;2023-03-05T03:18:20;4.30;59.40
17998;DHT22;9124;48.144;17.098;2023-03-05T03:21:56;4.30;59.40
17998;DHT22;9124;48.144;17.098;2023-03-05T03:25:33;4.30;59.50
17998;DHT22;9124;48.144;17.098;2023-03-05T03:29:09;4.30;59.60
17998;DHT22;9124;48.144;17.098;2023-03-05T03:32:46;4.30;59.50
17998;DHT22;9124;48.144;17.098;2023-03-05T03:36:22;4.30;59.60
17998;DHT22;9124;48.144;17.098;2023-03-05T03:39:58;4.30;59.60
17998;DHT22;9124;48.144;17.098;2023-03-05T03:43:35;4.30;59.60
17998;DHT22;9124;48.144;17.098;2023-03-05T03:47:11;4.30;59.70
17998;DHT22;9124;48.144;17.098;2023-03-05T03:50:48;4.30;59.70
17998;DHT22;9124;48.144;17.098;2023-03-05T03:54:24;4.30;59.80
17998;DHT22;9124;48.144;17.098;2023-03-05T03:58:01;4.30;59.80
17998;DHT22;9124;48.144;17.098;2023-03-05T04:01:39;4.30;60.00
17998;DHT22;9124;48.144;17.098;2023-03-05T04:05:15;4.30;60.00
17998;DHT22;9124;48.144;17.098;2023-03-05T04:08:52;4.30;60.00
17998;DHT22;9124;48.144;17.098;2023-03-05T04:12:28;4.30;60.00
17998;DHT22;9124;48.144;17.098;2023-03-05T04:16:05;4.30;60.10
17998;DHT22;9124;48.144;17.098;2023-03-05T04:19:41;4.30;60.30
17998;DHT22;9124;48.144;17.098;2023-03-05T04:23:19;4.40;60.30
17998;DHT22;9124;48.144;17.098;2023-03-05T04:26:55;4.40;60.30
17998;DHT22;9124;48.144;17.098;2023-03-05T04:30:32;4.40;60.30
17998;DHT22;9124;48.144;17.098;2023-03-05T04:34:08;4.40;60.40
17998;DHT22;9124;48.144;17.098;2023-03-05T04:37:44;4.30;60.30
17998;DHT22;9124;48.144;17.098;2023-03-05T04:41:22;4.30;60.50
17998;DHT22;9124;48.144;17.098;2023-03-05T04:44:58;4.30;60.50
17998;DHT22;9124;48.144;17.098;2023-03-05T04:48:35;4.30;60.50
17998;DHT22;9124;48.144;17.098;2023-03-05T04:52:12;4.30;60.60
17998;DHT22;9124;48.144;17.098;2023-03-05T04:55:55;4.20;60.60
17998;DHT22;9124;48.144;17.098;2023-03-05T04:59:33;4.20;60.80
17998;DHT22;9124;48.144;17.098;2023-03-05T05:03:09;4.20;60.80
17998;DHT22;9124;48.144;17.098;2023-03-05T05:06:45;4.20;61.60
17998;DHT22;9124;48.144;17.098;2023-03-05T05:10:23;4.20;60.90
17998;DHT22;9124;48.144;17.098;2023-03-05T05:14:00;4.20;60.90
17998;DHT22;9124;48.144;17.098;2023-03-05T05:17:36;4.20;61.00
17998;DHT22;9124;48.144;17.098;2023-03-05T05:21:13;4.20;61.00
17998;DHT22;9124;48.144;17.098;2023-03-05T05:24:50;4.10;60.90
17998;DHT22;9124;48.144;17.098;2023-03-05T05:28:27;4.10;61.10
17998;DHT22;9124;48.144;17.098;2023-03-05T05:32:03;4.10;61.20
17998;DHT22;9124;48.144;17.098;2023-03-05T05:35:39;4.20;61.20
17998;DHT22;9124;48.144;17.098;2023-03-05T05:39:17;4.20;61.30
17998;DHT22;9124;48.144;17.098;2023-03-05T05:42:53;4.20;61.30
17998;DHT22;9124;48.144;17.098;2023-03-05T05:46:29;4.30;61.30
17998;DHT22;9124;48.144;17.098;2023-03-05T05:50:06;4.40;61.50
17998;DHT22;9124;48.144;17.098;2023-03-05T05:53:43;4.40;61.40
17998;DHT22;9124;48.144;17.098;2023-03-05T05:57:20;4.40;61.40
17998;DHT22;9124;48.144;17.098;2023-03-05T06:00:56;4.40;61.30
17998;DHT22;9124;48.144;17.098;2023-03-05T06:04:33;4.40;61.30
17998;DHT22;9124;48.144;17.098;2023-03-05T06:08:11;4.40;61.40
17998;DHT22;9124;48.144;17.098;2023-03-05T06:11:47;4.50;61.50
17998;DHT22;9124;48.144;17.098;2023-03-05T06:15:23;4.60;61.60
17998;DHT22;9124;48.144;17.098;2023-03-05T06:18:59;4.60;61.60
17998;DHT22;9124;48.144;17.098;2023-03-05T06:22:39;4.60;61.60
17998;DHT22;9124;48.144;17.098;2023-03-05T06:26:18;4.60;61.70
17998;DHT22;9124;48.144;17.098;2023-03-05T06:29:55;4.60;61.90
17998;DHT22;9124;48.144;17.098;2023-03-05T06:33:32;4.70;61.90
17998;DHT22;9124;48.144;17.098;2023-03-05T06:37:09;4.70;63.00
17998;DHT22;9124;48.144;17.098;2023-03-05T06:40:45;4.70;62.50
17998;DHT22;9124;48.144;17.098;2023-03-05T06:44:22;4.80;62.40
17998;DHT22;9124;48.144;17.098;2023-03-05T06:47:58;4.70;62.20
17998;DHT22;9124;48.144;17.098;2023-03-05T06:51:37;4.80;62.30
17998;DHT22;9124;48.144;17.098;2023-03-05T06:55:14;4.80;62.30
17998;DHT22;9124;48.144;17.098;2023-03-05T06:58:51;4.80;62.30
17998;DHT22;9124;48.144;17.098;2023-03-05T07:02:27;4.70;62.40
17998;DHT22;9124;48.144;17.098;2023-03-05T07:06:06;4.70;62.80
17998;DHT22;9124;48.144;17.098;2023-03-05T07:09:43;4.80;62.40
17998;DHT22;9124;48.144;17.098;2023-03-05T07:13:23;4.70;62.50
17998;DHT22;9124;48.144;17.098;2023-03-05T07:17:05;4.80;62.50
17998;DHT22;9124;48.144;17.098;2023-03-05T07:20:45;4.80;62.50
17998;DHT22;9124;48.144;17.098;2023-03-05T07:24:22;4.90;62.50
17998;DHT22;9124;48.144;17.098;2023-03-05T07:28:03;4.90;62.50
17998;DHT22;9124;48.144;17.098;2023-03-05T07:31:43;5.00;62.50
17998;DHT22;9124;48.144;17.098;2023-03-05T07:35:19;5.00;62.50
17998;DHT22;9124;48.144;17.098;2023-03-05T07:38:56;5.00;62.50
17998;DHT22;9124;48.144;17.098;2023-03-05T07:42:33;5.00;62.50
17998;DHT22;9124;48.144;17.098;2023-03-05T07:46:25;5.10;62.60
17998;DHT22;9124;48.144;17.098;2023-03-05T07:50:02;5.20;62.60
17998;DHT22;9124;48.144;17.098;2023-03-05T07:53:39;5.30;62.60
17998;DHT22;9124;48.144;17.098;2023-03-05T07:57:15;5.40;62.50
17998;DHT22;9124;48.144;17.098;2023-03-05T08:00:52;5.50;62.50
17998;DHT22;9124;48.144;17.098;2023-03-05T08:04:28;5.50;62.40
17998;DHT22;9124;48.144;17.098;2023-03-05T08:08:07;5.70;62.50
17998;DHT22;9124;48.144;17.098;2023-03-05T08:11:44;5.90;62.50
17998;DHT22;9124;48.144;17.098;2023-03-05T08:15:21;6.30;62.50
17998;DHT22;9124;48.144;17.098;2023-03-05T08:18:58;6.70;62.20
17998;DHT22;9124;48.144;17.098;2023-03-05T08:22:35;7.10;62.60
17998;DHT22;9124;48.144;17.098;2023-03-05T08:26:14;7.40;61.90
17998;DHT22;9124;48.144;17.098;2023-03-05T08:29:51;7.50;61.50
17998;DHT22;9124;48.144;17.098;2023-03-05T08:33:27;7.20;61.00
17998;DHT22;9124;48.144;17.098;2023-03-05T08:37:04;7.00;61.10
17998;DHT22;9124;48.144;17.098;2023-03-05T08:40:41;6.80;61.10
17998;DHT22;9124;48.144;17.098;2023-03-05T08:44:18;6.70;61.30
17998;DHT22;9124;48.144;17.098;2023-03-05T08:47:55;6.50;61.50
17998;DHT22;9124;48.144;17.098;2023-03-05T08:51:32;6.60;61.70
17998;DHT22;9124;48.144;17.098;2023-03-05T08:55:10;6.70;61.70
17998;DHT22;9124;48.144;17.098;2023-03-05T08:58:48;6.80;61.60
17998;DHT22;9124;48.144;17.098;2023-03-05T09:02:24;6.90;61.60
17998;DHT22;9124;48.144;17.098;2023-03-05T09:06:02;7.00;61.50
17998;DHT22;9124;48.144;17.098;2023-03-05T09:09:39;6.90;61.30
17998;DHT22;9124;48.144;17.098;2023-03-05T09:13:16;6.90;61.30
17998;DHT22;9124;48.144;17.098;2023-03-05T09:16:53;6.90;61.40
17998;DHT22;9124;48.144;17.098;2023-03-05T09:20:29;6.80;61.30
17998;DHT22;9124;48.144;17.098;2023-03-05T09:24:06;6.90;61.40
17998;DHT22;9124;48.144;17.098;2023-03-05T09:27:43;7.20;62.10
17998;DHT22;9124;48.144;17.098;2023-03-05T09:31:20;7.60;61.30
17998;DHT22;9124;48.144;17.098;2023-03-05T09:34:57;8.00;61.10
17998;DHT22;9124;48.144;17.098;2023-03-05T09:38:34;8.40;61.00
17998;DHT22;9124;48.144;17.098;2023-03-05T09:57:55;10.70;58.50
17998;DHT22;9124;48.144;17.098;2023-03-05T10:01:38;11.10;58.30
17998;DHT22;9124;48.144;17.098;2023-03-05T10:13:36;12.60;56.80
17998;DHT22;9124;48.144;17.098;2023-03-05T10:17:38;12.20;56.00
17998;DHT22;9124;48.144;17.098;2023-03-05T10:21:34;11.60;55.50
17998;DHT22;9124;48.144;17.098;2023-03-05T10:25:25;10.70;55.70
17998;DHT22;9124;48.144;17.098;2023-03-05T10:41:28;10.60;56.30
17998;DHT22;9124;48.144;17.098;2023-03-05T10:48:56;11.10;55.50
17998;DHT22;9124;48.144;17.098;2023-03-05T10:52:37;10.90;55.30
17998;DHT22;9124;48.144;17.098;2023-03-05T10:56:20;11.10;55.30
17998;DHT22;9124;48.144;17.098;2023-03-05T11:00:15;11.10;55.00
17998;DHT22;9124;48.144;17.098;2023-03-05T11:04:07;10.60;54.70
17998;DHT22;9124;48.144;17.098;2023-03-05T11:08:00;10.00;54.80
17998;DHT22;9124;48.144;17.098;2023-03-05T11:12:19;9.30;54.80
17998;DHT22;9124;48.144;17.098;2023-03-05T11:16:05;8.70;55.10
17998;DHT22;9124;48.144;17.098;2023-03-05T11:19:41;8.20;55.40
17998;DHT22;9124;48.144;17.098;2023-03-05T11:23:21;7.80;55.60
17998;DHT22;9124;48.144;17.098;2023-03-05T11:27:01;7.60;56.00
17998;DHT22;9124;48.144;17.098;2023-03-05T11:30:39;7.30;56.20
17998;DHT22;9124;48.144;17.098;2023-03-05T11:38:00;7.30;56.60
17998;DHT22;9124;48.144;17.098;2023-03-05T11:45:37;7.20;56.80
17998;DHT22;9124;48.144;17.098;2023-03-05T11:49:20;7.00;56.80
17998;DHT22;9124;48.144;17.098;2023-03-05T11:53:18;7.00;56.90
17998;DHT22;9124;48.144;17.098;2023-03-05T11:56:56;7.00;57.00
17998;DHT22;9124;48.144;17.098;2023-03-05T12:00:36;6.90;57.00
17998;DHT22;9124;48.144;17.098;2023-03-05T12:04:14;6.80;57.10
17998;DHT22;9124;48.144;17.098;2023-03-05T12:07:55;6.60;57.10
17998;DHT22;9124;48.144;17.098;2023-03-05T12:11:33;6.50;57.30
17998;DHT22;9124;48.144;17.098;2023-03-05T12:19:19;6.60;57.50
17998;DHT22;9124;48.144;17.098;2023-03-05T12:22:59;6.80;57.50
17998;DHT22;9124;48.144;17.098;2023-03-05T12:26:55;6.80;57.50
17998;DHT22;9124;48.144;17.098;2023-03-05T12:38:27;6.60;57.70
17998;DHT22;9124;48.144;17.098;2023-03-05T12:46:22;6.50;57.70
17998;DHT22;9124;48.144;17.098;2023-03-05T12:49:59;6.40;57.70
17998;DHT22;9124;48.144;17.098;2023-03-05T12:53:38;6.40;57.70
17998;DHT22;9124;48.144;17.098;2023-03-05T12:57:22;6.40;57.80
17998;DHT22;9124;48.144;17.098;2023-03-05T13:01:06;6.30;57.80
17998;DHT22;9124;48.144;17.098;2023-03-05T13:04:49;6.30;57.90
17998;DHT22;9124;48.144;17.098;2023-03-05T13:08:30;6.30;57.90
17998;DHT22;9124;48.144;17.098;2023-03-05T13:12:12;6.30;57.90
17998;DHT22;9124;48.144;17.098;2023-03-05T13:15:50;6.30;57.90
17998;DHT22;9124;48.144;17.098;2023-03-05T13:19:28;6.30;57.90
17998;DHT22;9124;48.144;17.098;2023-03-05T13:23:26;6.30;57.90
17998;DHT22;9124;48.144;17.098;2023-03-05T13:27:18;6.30;57.90
17998;DHT22;9124;48.144;17.098;2023-03-05T13:31:17;6.30;57.80
17998;DHT22;9124;48.144;17.098;2023-03-05T13:34:58;6.30;57.80
17998;DHT22;9124;48.144;17.098;2023-03-05T13:38:42;6.30;57.80
17998;DHT22;9124;48.144;17.098;2023-03-05T13:42:26;6.20;57.70
17998;DHT22;9124;48.144;17.098;2023-03-05T13:46:03;6.20;57.80
17998;DHT22;9124;48.144;17.098;2023-03-05T13:49:39;6.20;58.00
17998;DHT22;9124;48.144;17.098;2023-03-05T13:53:27;6.10;57.90
17998;DHT22;9124;48.144;17.098;2023-03-05T13:57:06;6.10;58.00
17998;DHT22;9124;48.144;17.098;2023-03-05T14:00:43;6.00;58.00
17998;DHT22;9124;48.144;17.098;2023-03-05T14:04:25;6.00;58.10
17998;DHT22;9124;48.144;17.098;2023-03-05T14:08:02;5.90;58.30
17998;DHT22;9124;48.144;17.098;2023-03-05T14:11:39;5.80;58.30
17998;DHT22;9124;48.144;17.098;2023-03-05T14:15:22;5.90;58.40
17998;DHT22;9124;48.144;17.098;2023-03-05T14:19:02;5.90;58.80
17998;DHT22;9124;48.144;17.098;2023-03-05T14:22:44;5.80;58.50
17998;DHT22;9124;48.144;17.098;2023-03-05T14:26:27;5.80;58.50
17998;DHT22;9124;48.144;17.098;2023-03-05T14:30:13;5.80;58.60
17998;DHT22;9124;48.144;17.098;2023-03-05T14:33:51;5.80;58.60
17998;DHT22;9124;48.144;17.098;2023-03-05T14:37:34;5.80;58.60
17998;DHT22;9124;48.144;17.098;2023-03-05T14:41:32;5.70;58.70
17998;DHT22;9124;48.144;17.098;2023-03-05T14:45:15;5.80;58.80
17998;DHT22;9124;48.144;17.098;2023-03-05T14:48:52;5.80;58.80
17998;DHT22;9124;48.144;17.098;2023-03-05T14:52:30;5.90;58.80
17998;DHT22;9124;48.144;17.098;2023-03-05T14:56:26;5.90;58.80
17998;DHT22;9124;48.144;17.098;2023-03-05T15:00:04;5.90;58.80
17998;DHT22;9124;48.144;17.098;2023-03-05T15:03:41;5.80;58.80
17998;DHT22;9124;48.144;17.098;2023-03-05T15:07:28;5.80;58.90
17998;DHT22;9124;48.144;17.098;2023-03-05T15:11:05;5.70;58.90
17998;DHT22;9124;48.144;17.098;2023-03-05T15:14:42;5.70;58.90
17998;DHT22;9124;48.144;17.098;2023-03-05T15:18:20;5.70;59.00
17998;DHT22;9124;48.144;17.098;2023-03-05T15:21:58;5.70;59.10
17998;DHT22;9124;48.144;17.098;2023-03-05T15:25:35;5.60;59.00
17998;DHT22;9124;48.144;17.098;2023-03-05T15:29:11;5.60;59.00
17998;DHT22;9124;48.144;17.098;2023-03-05T15:32:48;5.70;59.10
17998;DHT22;9124;48.144;17.098;2023-03-05T15:36:25;5.70;59.10
17998;DHT22;9124;48.144;17.098;2023-03-05T15:40:01;5.70;59.10
17998;DHT22;9124;48.144;17.098;2023-03-05T15:43:38;5.70;59.10
17998;DHT22;9124;48.144;17.098;2023-03-05T15:47:15;5.70;59.10
17998;DHT22;9124;48.144;17.098;2023-03-05T15:50:51;5.80;59.10
17998;DHT22;9124;48.144;17.098;2023-03-05T15:54:27;5.70;59.10
17998;DHT22;9124;48.144;17.098;2023-03-05T15:58:04;5.70;59.10
17998;DHT22;9124;48.144;17.098;2023-03-05T16:01:45;5.70;59.10
17998;DHT22;9124;48.144;17.098;2023-03-05T16:05:22;5.70;59.20
17998;DHT22;9124;48.144;17.098;2023-03-05T16:09:02;5.60;59.10
17998;DHT22;9124;48.144;17.098;2023-03-05T16:12:39;5.60;59.20
17998;DHT22;9124;48.144;17.098;2023-03-05T16:16:18;5.60;59.10
17998;DHT22;9124;48.144;17.098;2023-03-05T16:19:56;5.60;59.10
17998;DHT22;9124;48.144;17.098;2023-03-05T16:23:33;5.60;59.10
17998;DHT22;9124;48.144;17.098;2023-03-05T16:27:10;5.50;59.00
17998;DHT22;9124;48.144;17.098;2023-03-05T16:30:55;5.50;59.00
17998;DHT22;9124;48.144;17.098;2023-03-05T16:34:32;5.50;59.00
17998;DHT22;9124;48.144;17.098;2023-03-05T16:38:09;5.40;58.90
17998;DHT22;9124;48.144;17.098;2023-03-05T16:41:46;5.40;58.90
17998;DHT22;9124;48.144;17.098;2023-03-05T16:45:23;5.40;59.00
17998;DHT22;9124;48.144;17.098;2023-03-05T16:48:59;5.30;59.00
17998;DHT22;9124;48.144;17.098;2023-03-05T16:52:36;5.40;59.10
17998;DHT22;9124;48.144;17.098;2023-03-05T16:56:13;5.40;59.00
17998;DHT22;9124;48.144;17.098;2023-03-05T16:59:51;5.40;58.90
17998;DHT22;9124;48.144;17.098;2023-03-05T17:03:29;5.40;58.90
17998;DHT22;9124;48.144;17.098;2023-03-05T17:07:07;5.30;58.70
17998;DHT22;9124;48.144;17.098;2023-03-05T17:10:44;5.40;58.90
17998;DHT22;9124;48.144;17.098;2023-03-05T17:14:20;5.40;58.80
17998;DHT22;9124;48.144;17.098;2023-03-05T17:17:57;5.40;58.80
17998;DHT22;9124;48.144;17.098;2023-03-05T17:21:33;5.40;58.70
17998;DHT22;9124;48.144;17.098;2023-03-05T17:25:10;5.40;58.70
17998;DHT22;9124;48.144;17.098;2023-03-05T17:28:46;5.40;58.50
17998;DHT22;9124;48.144;17.098;2023-03-05T17:32:23;5.40;58.50
17998;DHT22;9124;48.144;17.098;2023-03-05T17:35:59;5.40;58.50
17998;DHT22;9124;48.144;17.098;2023-03-05T17:39:37;5.40;58.50
17998;DHT22;9124;48.144;17.098;2023-03-05T17:43:14;5.40;58.40
17998;DHT22;9124;48.144;17.098;2023-03-05T17:46:50;5.40;58.40
17998;DHT22;9124;48.144;17.098;2023-03-05T17:50:27;5.30;58.30
17998;DHT22;9124;48.144;17.098;2023-03-05T17:54:04;5.30;58.30
17998;DHT22;9124;48.144;17.098;2023-03-05T17:57:41;5.30;58.30
17998;DHT22;9124;48.144;17.098;2023-03-05T18:01:23;5.20;58.30
17998;DHT22;9124;48.144;17.098;2023-03-05T18:04:59;5.20;58.30
17998;DHT22;9124;48.144;17.098;2023-03-05T18:08:36;5.30;58.30
17998;DHT22;9124;48.144;17.098;2023-03-05T18:12:12;5.30;58.30
17998;DHT22;9124;48.144;17.098;2023-03-05T18:15:49;5.30;58.20
17998;DHT22;9124;48.144;17.098;2023-03-05T18:19:25;5.30;58.20
17998;DHT22;9124;48.144;17.098;2023-03-05T18:23:03;5.30;58.30
17998;DHT22;9124;48.144;17.098;2023-03-05T18:26:40;5.20;58.20
17998;DHT22;9124;48.144;17.098;2023-03-05T18:30:16;5.20;58.20
17998;DHT22;9124;48.144;17.098;2023-03-05T18:33:53;5.20;58.20
17998;DHT22;9124;48.144;17.098;2023-03-05T18:37:29;5.20;58.20
17998;DHT22;9124;48.144;17.098;2023-03-05T18:41:05;5.20;58.20
17998;DHT22;9124;48.144;17.098;2023-03-05T18:44:43;5.20;58.20
17998;DHT22;9124;48.144;17.098;2023-03-05T18:48:20;5.30;58.20
17998;DHT22;9124;48.144;17.098;2023-03-05T18:51:56;5.30;58.20
17998;DHT22;9124;48.144;17.098;2023-03-05T18:55:33;5.40;58.30
17998;DHT22;9124;48.144;17.098;2023-03-05T18:59:09;5.40;58.20
17998;DHT22;9124;48.144;17.098;2023-03-05T19:02:46;5.30;58.20
17998;DHT22;9124;48.144;17.098;2023-03-05T19:06:23;5.20;58.10
17998;DHT22;9124;48.144;17.098;2023-03-05T19:10:00;5.20;58.30
17998;DHT22;9124;48.144;17.098;2023-03-05T19:13:44;5.20;58.30
17998;DHT22;9124;48.144;17.098;2023-03-05T19:17:25;5.10;58.30
17998;DHT22;9124;48.144;17.098;2023-03-05T19:21:01;5.10;58.40
17998;DHT22;9124;48.144;17.098;2023-03-05T19:24:38;5.10;58.40
17998;DHT22;9124;48.144;17.098;2023-03-05T19:28:14;5.10;58.60
17998;DHT22;9124;48.144;17.098;2023-03-05T19:31:52;5.10;58.50
17998;DHT22;9124;48.144;17.098;2023-03-05T19:35:28;5.10;58.60
17998;DHT22;9124;48.144;17.098;2023-03-05T19:39:06;5.10;58.60
17998;DHT22;9124;48.144;17.098;2023-03-05T19:42:42;5.10;58.60
17998;DHT22;9124;48.144;17.098;2023-03-05T19:46:19;5.00;58.50
17998;DHT22;9124;48.144;17.098;2023-03-05T19:49:55;5.00;58.60
17998;DHT22;9124;48.144;17.098;2023-03-05T19:53:31;5.00;58.70
17998;DHT22;9124;48.144;17.098;2023-03-05T19:57:08;4.90;58.60
17998;DHT22;9124;48.144;17.098;2023-03-05T20:00:45;4.90;58.60
17998;DHT22;9124;48.144;17.098;2023-03-05T20:04:22;4.90;58.70
17998;DHT22;9124;48.144;17.098;2023-03-05T20:07:59;4.90;58.70
17998;DHT22;9124;48.144;17.098;2023-03-05T20:11:36;5.00;58.80
17998;DHT22;9124;48.144;17.098;2023-03-05T20:15:17;4.90;58.70
17998;DHT22;9124;48.144;17.098;2023-03-05T20:18:55;4.90;58.80
17998;DHT22;9124;48.144;17.098;2023-03-05T20:22:32;4.90;58.80
17998;DHT22;9124;48.144;17.098;2023-03-05T20:26:08;4.70;58.70
17998;DHT22;9124;48.144;17.098;2023-03-05T20:29:45;4.80;58.90
17998;DHT22;9124;48.144;17.098;2023-03-05T20:33:22;4.80;59.00
17998;DHT22;9124;48.144;17.098;2023-03-05T20:36:58;4.80;59.00
17998;DHT22;9124;48.144;17.098;2023-03-05T20:40:35;4.90;59.00
17998;DHT22;9124;48.144;17.098;2023-03-05T20:44:11;4.90;59.00
17998;DHT22;9124;48.144;17.098;2023-03-05T20:47:49;4.80;59.00
17998;DHT22;9124;48.144;17.098;2023-03-05T20:51:30;4.70;59.00
17998;DHT22;9124;48.144;17.098;2023-03-05T20:55:08;4.70;59.10
17998;DHT22;9124;48.144;17.098;2023-03-05T20:58:44;4.60;59.10
17998;DHT22;9124;48.144;17.098;2023-03-05T21:02:21;4.60;59.20
17998;DHT22;9124;48.144;17.098;2023-03-05T21:05:57;4.60;59.30
17998;DHT22;9124;48.144;17.098;2023-03-05T21:09:34;4.60;59.30
17998;DHT22;9124;48.144;17.098;2023-03-05T21:13:10;4.60;59.40
17998;DHT22;9124;48.144;17.098;2023-03-05T21:16:47;4.60;59.50
17998;DHT22;9124;48.144;17.098;2023-03-05T21:20:28;4.60;59.50
17998;DHT22;9124;48.144;17.098;2023-03-05T21:24:05;4.70;59.70
17998;DHT22;9124;48.144;17.098;2023-03-05T21:27:42;4.70;59.60
17998;DHT22;9124;48.144;17.098;2023-03-05T21:31:20;4.70;59.70
17998;DHT22;9124;48.144;17.098;2023-03-05T21:34:57;4.70;59.70
17998;DHT22;9124;48.144;17.098;2023-03-05T21:38:33;4.60;59.60
17998;DHT22;9124;48.144;17.098;2023-03-05T21:42:10;4.60;59.60
17998;DHT22;9124;48.144;17.098;2023-03-05T21:45:48;4.70;59.70
17998;DHT22;9124;48.144;17.098;2023-03-05T21:49:25;4.70;59.70
17998;DHT22;9124;48.144;17.098;2023-03-05T21:53:02;4.70;59.80
17998;DHT22;9124;48.144;17.098;2023-03-05T21:56:38;4.80;59.70
17998;DHT22;9124;48.144;17.098;2023-03-05T22:00:15;4.80;59.70
17998;DHT22;9124;48.144;17.098;2023-03-05T22:03:53;4.80;59.80
17998;DHT22;9124;48.144;17.098;2023-03-05T22:07:29;4.80;59.70
17998;DHT22;9124;48.144;17.098;2023-03-05T22:11:10;4.80;59.70
17998;DHT22;9124;48.144;17.098;2023-03-05T22:14:47;4.80;59.70
17998;DHT22;9124;48.144;17.098;2023-03-05T22:18:28;4.90;59.80
17998;DHT22;9124;48.144;17.098;2023-03-05T22:22:05;4.90;60.40
17998;DHT22;9124;48.144;17.098;2023-03-05T22:25:42;4.90;59.80
17998;DHT22;9124;48.144;17.098;2023-03-05T22:29:19;4.90;59.70
17998;DHT22;9124;48.144;17.098;2023-03-05T22:32:55;4.80;59.70
17998;DHT22;9124;48.144;17.098;2023-03-05T22:36:31;4.80;59.70
17998;DHT22;9124;48.144;17.098;2023-03-05T22:40:13;4.80;59.70
17998;DHT22;9124;48.144;17.098;2023-03-05T22:43:50;4.80;59.70
17998;DHT22;9124;48.144;17.098;2023-03-05T22:47:26;4.80;59.80
17998;DHT22;9124;48.144;17.098;2023-03-05T22:51:03;4.80;59.80
17998;DHT22;9124;48.144;17.098;2023-03-05T22:54:40;4.80;59.80
17998;DHT22;9124;48.144;17.098;2023-03-05T22:58:16;4.80;59.80
17998;DHT22;9124;48.144;17.098;2023-03-05T23:01:53;4.80;59.80
17998;DHT22;9124;48.144;17.098;2023-03-05T23:05:29;4.80;59.80
17998;DHT22;9124;48.144;17.098;2023-03-05T23:09:06;4.80;59.80
17998;DHT22;9124;48.144;17.098;2023-03-05T23:12:45;4.80;59.80
17998;DHT22;9124;48.144;17.098;2023-03-05T23:16:24;4.80;59.80
17998;DHT22;9124;48.144;17.098;2023-03-05T23:20:01;4.80;59.70
17998;DHT22;9124;48.144;17.098;2023-03-05T23:23:40;4.80;59.80
17998;DHT22;9124;48.144;17.098;2023-03-05T23:27:17;4.80;59.80
17998;DHT22;9124;48.144;17.098;2023-03-05T23:30:56;4.80;59.80
17998;DHT22;9124;48.144;17.098;2023-03-05T23:34:32;4.80;59.80
17998;DHT22;9124;48.144;17.098;2023-03-05T23:38:13;4.80;59.80
17998;DHT22;9124;48.144;17.098;2023-03-05T23:41:49;4.80;59.80
17998;DHT22;9124;48.144;17.098;2023-03-05T23:45:26;4.80;59.70
17998;DHT22;9124;48.144;17.098;2023-03-05T23:49:03;4.80;59.70
17998;DHT22;9124;48.144;17.098;2023-03-05T23:52:41;4.70;59.70
17998;DHT22;9124;48.144;17.098;2023-03-05T23:56:17;4.80;59.80
17998;DHT22;9124;48.144;17.098;2023-03-05T23:59:54;4.80;59.80
